createdAt,value
2022-10-07T00:00:24.447Z,0.00
2022-10-07T00:01:24.537Z,0.00
2022-10-07T00:02:24.496Z,0.00
2022-10-07T00:03:24.408Z,0.00
2022-10-07T00:04:24.406Z,0.00
2022-10-07T00:05:24.392Z,0.00
2022-10-07T00:06:24.408Z,0.00
2022-10-07T00:07:24.377Z,0.00
2022-10-07T00:08:24.361Z,0.00
2022-10-07T00:09:24.346Z,0.00
2022-10-07T00:10:24.352Z,0.00
2022-10-07T00:11:24.351Z,0.00
2022-10-07T00:12:24.315Z,0.00
2022-10-07T00:13:24.364Z,0.00
2022-10-07T00:14:24.289Z,0.00
2022-10-07T00:15:24.281Z,0.00
2022-10-07T00:16:24.353Z,0.00
2022-10-07T00:17:24.269Z,0.00
2022-10-07T00:18:24.246Z,0.00
2022-10-07T00:19:24.235Z,0.00
2022-10-07T00:20:24.239Z,0.00
2022-10-07T00:21:24.247Z,0.00
2022-10-07T00:22:24.201Z,0.00
2022-10-07T00:23:24.192Z,0.00
2022-10-07T00:24:24.186Z,0.00
2022-10-07T00:25:24.172Z,0.00
2022-10-07T00:26:24.595Z,0.00
2022-10-07T00:27:24.151Z,0.00
2022-10-07T00:28:24.193Z,0.00
2022-10-07T00:29:24.134Z,0.00
2022-10-07T00:30:24.127Z,0.00
2022-10-07T00:31:24.181Z,0.00
2022-10-07T00:32:24.099Z,0.00
2022-10-07T00:33:24.092Z,0.00
2022-10-07T00:34:24.073Z,0.00
2022-10-07T00:35:24.053Z,0.00
2022-10-07T00:36:24.066Z,0.00
2022-10-07T00:37:24.034Z,0.00
2022-10-07T00:38:24.018Z,0.00
2022-10-07T00:39:24.013Z,0.00
2022-10-07T00:40:23.992Z,0.00
2022-10-07T00:41:24.016Z,0.00
2022-10-07T00:42:24.120Z,0.00
2022-10-07T00:43:23.957Z,0.00
2022-10-07T00:44:23.952Z,0.00
2022-10-07T00:45:23.945Z,0.00
2022-10-07T00:46:24.028Z,0.00
2022-10-07T00:47:23.931Z,0.00
2022-10-07T00:48:23.903Z,0.00
2022-10-07T00:49:23.893Z,0.00
2022-10-07T00:50:23.879Z,0.00
2022-10-07T00:51:23.879Z,0.00
2022-10-07T00:52:23.861Z,0.00
2022-10-07T00:53:23.843Z,0.00
2022-10-07T00:54:23.836Z,0.00
2022-10-07T00:55:23.830Z,0.00
2022-10-07T00:56:23.843Z,0.00
2022-10-07T00:57:23.808Z,0.00
2022-10-07T00:58:23.819Z,0.00
2022-10-07T00:59:23.803Z,0.00
2022-10-07T01:00:23.806Z,0.00
2022-10-07T01:01:23.843Z,0.00
2022-10-07T01:02:23.810Z,0.00
2022-10-07T01:03:23.757Z,0.00
2022-10-07T01:04:23.730Z,0.00
2022-10-07T01:05:23.722Z,0.00
2022-10-07T01:06:23.747Z,0.00
2022-10-07T01:07:23.712Z,0.00
2022-10-07T01:08:23.690Z,0.00
2022-10-07T01:09:23.678Z,0.00
2022-10-07T01:10:23.680Z,0.00
2022-10-07T01:11:23.700Z,0.00
2022-10-07T01:12:23.661Z,0.00
2022-10-07T01:13:23.645Z,0.00
2022-10-07T01:14:23.644Z,0.00
2022-10-07T01:15:23.614Z,0.00
2022-10-07T01:16:23.688Z,0.00
2022-10-07T01:17:23.597Z,0.00
2022-10-07T01:18:23.580Z,0.00
2022-10-07T01:19:23.572Z,0.00
2022-10-07T01:20:23.566Z,0.00
2022-10-07T01:21:23.589Z,0.00
2022-10-07T01:22:23.540Z,0.00
2022-10-07T01:23:23.531Z,0.00
2022-10-07T01:24:23.548Z,0.00
2022-10-07T01:25:23.614Z,0.00
2022-10-07T01:26:23.544Z,0.00
2022-10-07T01:27:23.481Z,0.00
2022-10-07T01:28:23.522Z,0.00
2022-10-07T01:29:23.510Z,0.00
2022-10-07T01:30:23.472Z,0.00
2022-10-07T01:31:23.535Z,0.00
2022-10-07T01:32:23.430Z,0.00
2022-10-07T01:33:23.423Z,0.00
2022-10-07T01:34:23.408Z,0.00
2022-10-07T01:35:23.510Z,0.00
2022-10-07T01:36:23.425Z,0.00
2022-10-07T01:37:23.386Z,0.00
2022-10-07T01:38:23.374Z,0.00
2022-10-07T01:39:23.354Z,0.00
2022-10-07T01:40:23.342Z,0.00
2022-10-07T01:41:23.373Z,0.00
2022-10-07T01:42:23.336Z,0.00
2022-10-07T01:43:23.340Z,0.00
2022-10-07T01:44:24.164Z,0.00
2022-10-07T01:45:23.291Z,0.00
2022-10-07T01:46:23.407Z,0.00
2022-10-07T01:47:23.289Z,0.00
2022-10-07T01:48:23.280Z,0.00
2022-10-07T01:49:23.247Z,0.00
2022-10-07T01:50:23.239Z,0.00
2022-10-07T01:51:23.253Z,0.00
2022-10-07T01:52:23.226Z,0.00
2022-10-07T01:53:23.203Z,0.00
2022-10-07T01:54:23.199Z,0.00
2022-10-07T01:55:23.212Z,0.00
2022-10-07T01:56:30.237Z,0.00
2022-10-07T01:57:23.151Z,0.00
2022-10-07T01:58:23.143Z,0.00
2022-10-07T01:59:23.131Z,0.00
2022-10-07T02:00:23.121Z,0.00
2022-10-07T02:01:23.200Z,0.00
2022-10-07T02:02:23.133Z,0.00
2022-10-07T02:03:23.199Z,0.00
2022-10-07T02:04:23.111Z,0.00
2022-10-07T02:05:23.081Z,0.00
2022-10-07T02:06:23.133Z,0.00
2022-10-07T02:07:23.058Z,0.00
2022-10-07T02:08:23.036Z,0.00
2022-10-07T02:09:23.025Z,0.00
2022-10-07T02:10:23.025Z,0.00
2022-10-07T02:11:23.016Z,0.00
2022-10-07T02:12:22.992Z,0.00
2022-10-07T02:13:22.986Z,0.00
2022-10-07T02:14:22.978Z,0.00
2022-10-07T02:15:22.966Z,0.00
2022-10-07T02:16:23.078Z,0.00
2022-10-07T02:17:22.991Z,0.00
2022-10-07T02:18:22.956Z,0.00
2022-10-07T02:19:22.933Z,0.00
2022-10-07T02:20:22.911Z,0.00
2022-10-07T02:21:22.920Z,0.00
2022-10-07T02:22:22.901Z,0.00
2022-10-07T02:23:22.892Z,0.00
2022-10-07T02:24:22.915Z,0.00
2022-10-07T02:25:22.860Z,0.00
2022-10-07T02:26:22.859Z,0.00
2022-10-07T02:27:22.836Z,0.00
2022-10-07T02:28:22.860Z,0.00
2022-10-07T02:29:22.809Z,0.00
2022-10-07T02:30:22.849Z,0.00
2022-10-07T02:31:22.882Z,0.00
2022-10-07T02:32:22.774Z,0.00
2022-10-07T02:33:22.764Z,0.00
2022-10-07T02:34:22.770Z,0.00
2022-10-07T02:35:22.742Z,0.00
2022-10-07T02:36:22.744Z,0.00
2022-10-07T02:37:22.723Z,0.00
2022-10-07T02:38:22.711Z,0.00
2022-10-07T02:39:22.699Z,0.00
2022-10-07T02:40:22.692Z,0.00
2022-10-07T02:41:22.686Z,0.00
2022-10-07T02:42:22.665Z,0.00
2022-10-07T02:43:22.683Z,0.00
2022-10-07T02:44:22.643Z,0.00
2022-10-07T02:45:26.680Z,0.00
2022-10-07T02:46:22.736Z,0.00
2022-10-07T02:47:22.612Z,0.00
2022-10-07T02:48:22.599Z,0.00
2022-10-07T02:49:22.590Z,0.00
2022-10-07T02:50:22.597Z,0.00
2022-10-07T02:51:22.581Z,0.00
2022-10-07T02:52:22.579Z,0.00
2022-10-07T02:53:22.550Z,0.00
2022-10-07T02:54:22.537Z,0.00
2022-10-07T02:55:22.537Z,0.00
2022-10-07T02:56:22.531Z,0.00
2022-10-07T02:57:22.504Z,0.00
2022-10-07T02:58:22.494Z,0.00
2022-10-07T02:59:22.485Z,0.00
2022-10-07T03:00:22.471Z,0.00
2022-10-07T03:01:22.543Z,0.00
2022-10-07T03:02:22.448Z,0.00
2022-10-07T03:03:22.497Z,0.00
2022-10-07T03:04:22.504Z,0.00
2022-10-07T03:05:22.420Z,0.00
2022-10-07T03:06:22.433Z,0.00
2022-10-07T03:07:22.396Z,0.00
2022-10-07T03:08:22.385Z,0.00
2022-10-07T03:09:22.373Z,0.00
2022-10-07T03:10:22.362Z,0.00
2022-10-07T03:11:22.363Z,0.00
2022-10-07T03:12:22.342Z,0.00
2022-10-07T03:13:22.330Z,0.00
2022-10-07T03:14:22.331Z,0.00
2022-10-07T03:15:22.311Z,0.00
2022-10-07T03:16:22.448Z,0.00
2022-10-07T03:17:22.288Z,0.00
2022-10-07T03:18:22.274Z,0.00
2022-10-07T03:19:22.264Z,0.00
2022-10-07T03:20:22.254Z,0.00
2022-10-07T03:21:22.257Z,0.00
2022-10-07T03:22:22.249Z,0.00
2022-10-07T03:23:22.222Z,0.00
2022-10-07T03:24:22.210Z,0.00
2022-10-07T03:25:22.200Z,0.00
2022-10-07T03:26:22.199Z,0.00
2022-10-07T03:27:22.183Z,0.00
2022-10-07T03:28:22.215Z,0.00
2022-10-07T03:29:22.157Z,0.00
2022-10-07T03:30:24.521Z,0.00
2022-10-07T03:31:22.244Z,0.00
2022-10-07T03:32:22.122Z,0.00
2022-10-07T03:33:22.114Z,0.00
2022-10-07T03:34:22.099Z,0.00
2022-10-07T03:35:22.088Z,0.00
2022-10-07T03:36:22.088Z,0.00
2022-10-07T03:37:22.068Z,0.00
2022-10-07T03:38:22.081Z,0.00
2022-10-07T03:39:22.050Z,0.00
2022-10-07T03:40:22.045Z,0.00
2022-10-07T03:41:22.056Z,0.00
2022-10-07T03:42:22.021Z,0.00
2022-10-07T03:43:22.011Z,0.00
2022-10-07T03:44:21.988Z,0.00
2022-10-07T03:45:21.984Z,0.00
2022-10-07T03:46:22.011Z,0.00
2022-10-07T03:47:21.957Z,0.00
2022-10-07T03:48:21.944Z,0.00
2022-10-07T03:49:21.954Z,0.00
2022-10-07T03:50:21.932Z,0.00
2022-10-07T03:51:21.915Z,0.00
2022-10-07T03:52:21.901Z,0.00
2022-10-07T03:53:21.892Z,0.00
2022-10-07T03:54:21.895Z,0.00
2022-10-07T03:55:21.880Z,0.00
2022-10-07T03:56:21.857Z,0.00
2022-10-07T03:57:21.847Z,0.00
2022-10-07T03:58:21.834Z,0.00
2022-10-07T03:59:21.826Z,0.00
2022-10-07T04:00:21.836Z,0.00
2022-10-07T04:01:21.845Z,0.00
2022-10-07T04:02:21.810Z,0.00
2022-10-07T04:03:21.834Z,0.00
2022-10-07T04:04:21.770Z,0.00
2022-10-07T04:05:21.761Z,0.00
2022-10-07T04:06:21.770Z,0.00
2022-10-07T04:07:21.741Z,0.00
2022-10-07T04:08:21.726Z,0.00
2022-10-07T04:09:21.718Z,0.00
2022-10-07T04:10:21.721Z,0.00
2022-10-07T04:11:21.704Z,0.00
2022-10-07T04:12:21.685Z,0.00
2022-10-07T04:13:21.672Z,0.00
2022-10-07T04:14:21.659Z,0.00
2022-10-07T04:15:21.651Z,0.00
2022-10-07T04:16:21.680Z,0.00
2022-10-07T04:17:21.629Z,0.00
2022-10-07T04:18:21.655Z,0.00
2022-10-07T04:19:21.606Z,0.00
2022-10-07T04:20:21.617Z,0.00
2022-10-07T04:21:21.595Z,0.00
2022-10-07T04:22:21.578Z,0.00
2022-10-07T04:23:21.564Z,0.00
2022-10-07T04:24:21.552Z,0.00
2022-10-07T04:25:21.549Z,0.00
2022-10-07T04:26:21.557Z,0.00
2022-10-07T04:27:46.756Z,0.00
2022-10-07T04:28:22.552Z,0.00
2022-10-07T04:29:21.540Z,0.00
2022-10-07T04:30:21.484Z,0.00
2022-10-07T04:31:21.596Z,0.00
2022-10-07T04:32:21.466Z,0.00
2022-10-07T04:33:21.454Z,0.00
2022-10-07T04:34:21.444Z,0.00
2022-10-07T04:35:21.431Z,0.00
2022-10-07T04:36:21.427Z,0.00
2022-10-07T04:37:21.422Z,0.00
2022-10-07T04:38:25.204Z,0.00
2022-10-07T04:39:29.941Z,0.00
2022-10-07T04:40:22.373Z,0.00
2022-10-07T04:41:21.377Z,0.00
2022-10-07T04:42:21.386Z,0.00
2022-10-07T04:43:21.345Z,0.00
2022-10-07T04:44:21.331Z,0.00
2022-10-07T04:45:21.323Z,0.00
2022-10-07T04:46:21.347Z,0.00
2022-10-07T04:47:21.303Z,0.00
2022-10-07T04:48:21.291Z,0.00
2022-10-07T04:49:21.281Z,0.00
2022-10-07T04:50:21.266Z,0.00
2022-10-07T04:51:21.271Z,0.00
2022-10-07T04:52:21.255Z,0.00
2022-10-07T04:53:21.238Z,0.00
2022-10-07T04:54:21.228Z,0.00
2022-10-07T04:55:21.220Z,0.00
2022-10-07T04:56:21.211Z,0.00
2022-10-07T04:57:21.193Z,0.00
2022-10-07T04:58:21.197Z,0.00
2022-10-07T04:59:23.629Z,0.00
2022-10-07T05:00:21.159Z,0.00
2022-10-07T05:01:21.201Z,0.00
2022-10-07T05:02:21.192Z,0.00
2022-10-07T05:03:21.152Z,0.00
2022-10-07T05:04:21.114Z,0.00
2022-10-07T05:05:21.138Z,0.00
2022-10-07T05:06:21.105Z,0.00
2022-10-07T05:07:21.101Z,0.00
2022-10-07T05:08:21.072Z,0.00
2022-10-07T05:09:21.065Z,0.00
2022-10-07T05:10:21.072Z,0.00
2022-10-07T05:11:21.041Z,0.00
2022-10-07T05:12:21.029Z,5.62
2022-10-07T05:13:21.019Z,5.62
2022-10-07T05:14:21.024Z,5.62
2022-10-07T05:15:21.001Z,5.62
2022-10-07T05:16:21.062Z,5.62
2022-10-07T05:17:20.976Z,5.62
2022-10-07T05:18:20.965Z,5.62
2022-10-07T05:19:20.955Z,5.62
2022-10-07T05:20:20.955Z,11.25
2022-10-07T05:21:20.936Z,11.25
2022-10-07T05:22:20.921Z,11.25
2022-10-07T05:23:24.431Z,11.25
2022-10-07T05:24:21.897Z,11.25
2022-10-07T05:25:20.899Z,16.88
2022-10-07T05:26:20.881Z,16.88
2022-10-07T05:27:20.868Z,16.88
2022-10-07T05:28:20.907Z,16.88
2022-10-07T05:29:20.845Z,16.88
2022-10-07T05:30:20.879Z,22.50
2022-10-07T05:31:20.864Z,22.50
2022-10-07T05:32:20.814Z,22.50
2022-10-07T05:33:20.808Z,28.12
2022-10-07T05:34:20.792Z,28.12
2022-10-07T05:35:20.796Z,33.75
2022-10-07T05:36:20.770Z,45.00
2022-10-07T05:37:20.761Z,61.88
2022-10-07T05:38:20.750Z,67.50
2022-10-07T05:39:20.751Z,50.62
2022-10-07T05:40:20.725Z,50.62
2022-10-07T05:41:20.716Z,56.25
2022-10-07T05:42:20.704Z,67.50
2022-10-07T05:43:20.697Z,61.88
2022-10-07T05:44:20.692Z,50.62
2022-10-07T05:45:20.675Z,61.88
2022-10-07T05:46:20.779Z,73.12
2022-10-07T05:47:20.654Z,67.50
2022-10-07T05:48:20.644Z,61.88
2022-10-07T05:49:20.644Z,61.88
2022-10-07T05:50:20.618Z,61.88
2022-10-07T05:51:20.607Z,67.50
2022-10-07T05:52:20.611Z,67.50
2022-10-07T05:53:20.587Z,67.50
2022-10-07T05:54:20.582Z,67.50
2022-10-07T05:55:20.565Z,67.50
2022-10-07T05:56:20.551Z,73.12
2022-10-07T05:57:20.543Z,106.88
2022-10-07T05:58:20.529Z,106.88
2022-10-07T05:59:20.535Z,118.12
2022-10-07T06:00:20.507Z,123.75
2022-10-07T06:01:20.505Z,78.75
2022-10-07T06:02:20.639Z,78.75
2022-10-07T06:03:20.558Z,78.75
2022-10-07T06:04:20.480Z,78.75
2022-10-07T06:05:20.456Z,84.38
2022-10-07T06:06:20.443Z,90.00
2022-10-07T06:07:22.695Z,90.00
2022-10-07T06:08:20.422Z,95.62
2022-10-07T06:09:20.422Z,118.12
2022-10-07T06:10:20.401Z,118.12
2022-10-07T06:11:20.390Z,106.88
2022-10-07T06:12:20.379Z,106.88
2022-10-07T06:13:20.372Z,129.38
2022-10-07T06:14:20.356Z,185.62
2022-10-07T06:15:20.360Z,219.38
2022-10-07T06:16:20.409Z,180.00
2022-10-07T06:17:20.325Z,202.50
2022-10-07T06:18:20.450Z,427.50
2022-10-07T06:19:20.305Z,635.62
2022-10-07T06:20:20.302Z,691.88
2022-10-07T06:21:20.282Z,703.12
2022-10-07T06:22:20.273Z,579.38
2022-10-07T06:23:20.259Z,573.75
2022-10-07T06:24:20.250Z,624.38
2022-10-07T06:25:20.253Z,534.38
2022-10-07T06:26:20.234Z,562.50
2022-10-07T06:27:20.215Z,708.75
2022-10-07T06:28:20.283Z,821.25
2022-10-07T06:29:20.244Z,855.00
2022-10-07T06:30:20.188Z,871.88
2022-10-07T06:31:21.278Z,894.38
2022-10-07T06:32:20.191Z,922.50
2022-10-07T06:33:20.151Z,916.88
2022-10-07T06:34:20.168Z,928.12
2022-10-07T06:35:20.128Z,945.00
2022-10-07T06:36:20.150Z,973.12
2022-10-07T06:37:20.110Z,1006.88
2022-10-07T06:38:20.098Z,1018.12
2022-10-07T06:39:20.098Z,1018.12
2022-10-07T06:40:20.078Z,1040.62
2022-10-07T06:41:20.066Z,1074.38
2022-10-07T06:42:20.055Z,1091.25
2022-10-07T06:43:20.044Z,1141.88
2022-10-07T06:44:20.048Z,1175.62
2022-10-07T06:45:20.022Z,1170.00
2022-10-07T06:46:20.110Z,1198.12
2022-10-07T06:47:20.004Z,1243.12
2022-10-07T06:48:19.992Z,1293.75
2022-10-07T06:49:19.991Z,1316.25
2022-10-07T06:50:20.025Z,1276.88
2022-10-07T06:51:19.982Z,1288.12
2022-10-07T06:52:19.950Z,1327.50
2022-10-07T06:53:19.933Z,1327.50
2022-10-07T06:54:19.936Z,1355.62
2022-10-07T06:55:19.914Z,1445.62
2022-10-07T06:56:19.910Z,1462.50
2022-10-07T06:57:44.410Z,1411.88
2022-10-07T06:58:20.879Z,1333.12
2022-10-07T06:59:19.878Z,1305.00
2022-10-07T07:00:19.859Z,1338.75
2022-10-07T07:01:19.932Z,1406.25
2022-10-07T07:02:19.955Z,1524.38
2022-10-07T07:03:19.826Z,1608.75
2022-10-07T07:04:19.828Z,1558.12
2022-10-07T07:05:19.811Z,1575.00
2022-10-07T07:06:19.811Z,1636.88
2022-10-07T07:07:19.783Z,1681.88
2022-10-07T07:08:19.779Z,1642.50
2022-10-07T07:09:19.801Z,1687.50
2022-10-07T07:10:19.757Z,1676.25
2022-10-07T07:11:19.741Z,1631.25
2022-10-07T07:12:19.737Z,1597.50
2022-10-07T07:13:19.722Z,1698.75
2022-10-07T07:14:19.724Z,1749.38
2022-10-07T07:15:19.697Z,1687.50
2022-10-07T07:16:19.735Z,1805.62
2022-10-07T07:17:19.682Z,1873.12
2022-10-07T07:18:19.670Z,1839.38
2022-10-07T07:19:19.669Z,1890.00
2022-10-07T07:20:19.674Z,1901.25
2022-10-07T07:21:19.636Z,1918.12
2022-10-07T07:22:19.646Z,1935.00
2022-10-07T07:23:19.613Z,1929.38
2022-10-07T07:24:19.660Z,1946.25
2022-10-07T07:25:19.601Z,2036.25
2022-10-07T07:26:19.585Z,1996.88
2022-10-07T07:27:19.576Z,1963.12
2022-10-07T07:28:19.630Z,2053.12
2022-10-07T07:29:19.563Z,2019.38
2022-10-07T07:30:19.545Z,2030.62
2022-10-07T07:31:19.586Z,2081.25
2022-10-07T07:32:19.526Z,2115.00
2022-10-07T07:33:19.511Z,2148.75
2022-10-07T07:34:19.517Z,2176.88
2022-10-07T07:35:19.489Z,2205.00
2022-10-07T07:36:19.481Z,2221.88
2022-10-07T07:37:19.468Z,2238.75
2022-10-07T07:38:23.341Z,2250.00
2022-10-07T07:39:20.461Z,2250.00
2022-10-07T07:40:19.440Z,2266.88
2022-10-07T07:41:19.427Z,2283.75
2022-10-07T07:42:19.419Z,2300.62
2022-10-07T07:43:19.407Z,2328.75
2022-10-07T07:44:19.417Z,2255.62
2022-10-07T07:45:19.388Z,2227.50
2022-10-07T07:46:19.434Z,2295.00
2022-10-07T07:47:19.366Z,2311.88
2022-10-07T07:48:19.357Z,2368.12
2022-10-07T07:49:19.355Z,2385.00
2022-10-07T07:50:19.338Z,2221.88
2022-10-07T07:51:19.324Z,2143.12
2022-10-07T07:52:19.318Z,2103.75
2022-10-07T07:53:19.303Z,2188.12
2022-10-07T07:54:19.323Z,2176.88
2022-10-07T07:55:19.285Z,2188.12
2022-10-07T07:56:19.299Z,2373.75
2022-10-07T07:57:26.860Z,2463.75
2022-10-07T07:58:19.260Z,2458.12
2022-10-07T07:59:19.266Z,2491.88
2022-10-07T08:00:19.248Z,2548.12
2022-10-07T08:01:19.293Z,2452.50
2022-10-07T08:02:19.300Z,2441.25
2022-10-07T08:03:19.208Z,2542.50
2022-10-07T08:04:19.204Z,2660.62
2022-10-07T08:05:23.638Z,2593.12
2022-10-07T08:06:20.171Z,2435.62
2022-10-07T08:07:19.163Z,2283.75
2022-10-07T08:08:19.154Z,2311.88
2022-10-07T08:09:19.156Z,2463.75
2022-10-07T08:10:19.164Z,2587.50
2022-10-07T08:11:19.122Z,2666.25
2022-10-07T08:12:19.116Z,2722.50
2022-10-07T08:13:19.101Z,2390.62
2022-10-07T08:14:19.164Z,2356.88
2022-10-07T08:15:19.084Z,2626.88
2022-10-07T08:16:19.075Z,2469.38
2022-10-07T08:17:19.064Z,2030.62
2022-10-07T08:18:19.055Z,2081.25
2022-10-07T08:19:19.050Z,1991.25
2022-10-07T08:20:19.041Z,1636.88
2022-10-07T08:21:19.046Z,1788.75
2022-10-07T08:22:19.014Z,1698.75
2022-10-07T08:23:19.029Z,1620.00
2022-10-07T08:24:19.002Z,1130.62
2022-10-07T08:25:18.994Z,641.25
2022-10-07T08:26:18.995Z,1063.12
2022-10-07T08:27:18.966Z,1580.62
2022-10-07T08:28:18.991Z,1833.75
2022-10-07T08:29:18.965Z,1861.88
2022-10-07T08:30:18.933Z,1861.88
2022-10-07T08:31:18.974Z,1552.50
2022-10-07T08:32:18.915Z,1068.75
2022-10-07T08:33:18.907Z,1012.50
2022-10-07T08:34:18.907Z,905.62
2022-10-07T08:35:18.882Z,911.25
2022-10-07T08:36:18.907Z,1147.50
2022-10-07T08:37:18.870Z,1485.00
2022-10-07T08:38:18.852Z,1839.38
2022-10-07T08:39:18.856Z,2295.00
2022-10-07T08:40:18.832Z,2210.62
2022-10-07T08:41:18.819Z,1614.38
2022-10-07T08:42:18.826Z,1597.50
2022-10-07T08:43:18.799Z,2143.12
2022-10-07T08:44:18.800Z,2250.00
2022-10-07T08:45:18.778Z,1541.25
2022-10-07T08:46:18.815Z,1620.00
2022-10-07T08:47:18.757Z,1310.62
2022-10-07T08:48:18.749Z,1170.00
2022-10-07T08:49:18.752Z,1620.00
2022-10-07T08:50:20.076Z,1530.00
2022-10-07T08:51:18.724Z,1175.62
2022-10-07T08:52:18.705Z,933.75
2022-10-07T08:53:18.705Z,635.62
2022-10-07T08:54:18.702Z,978.75
2022-10-07T08:55:18.781Z,1299.38
2022-10-07T08:56:18.667Z,1434.38
2022-10-07T08:57:18.653Z,1305.00
2022-10-07T08:58:18.660Z,1479.38
2022-10-07T08:59:18.641Z,1766.25
2022-10-07T09:00:18.624Z,1501.88
2022-10-07T09:01:18.689Z,1575.00
2022-10-07T09:02:18.620Z,2238.75
2022-10-07T09:03:24.125Z,2767.50
2022-10-07T09:04:19.589Z,2981.25
2022-10-07T09:05:18.570Z,2913.75
2022-10-07T09:06:18.558Z,2587.50
2022-10-07T09:07:18.555Z,2604.38
2022-10-07T09:08:18.538Z,2666.25
2022-10-07T09:09:18.547Z,2598.75
2022-10-07T09:10:18.522Z,2283.75
2022-10-07T09:11:18.509Z,2323.12
2022-10-07T09:12:18.496Z,2649.38
2022-10-07T09:13:18.488Z,3031.88
2022-10-07T09:14:18.519Z,3127.50
2022-10-07T09:15:18.469Z,2846.25
2022-10-07T09:16:18.539Z,2632.50
2022-10-07T09:17:18.446Z,2936.25
2022-10-07T09:18:18.434Z,3442.50
2022-10-07T09:19:18.434Z,3459.38
2022-10-07T09:20:18.434Z,3256.88
2022-10-07T09:21:18.469Z,3301.88
2022-10-07T09:22:18.395Z,3273.75
2022-10-07T09:23:18.401Z,3346.88
2022-10-07T09:24:18.376Z,3448.12
2022-10-07T09:25:18.375Z,3397.50
2022-10-07T09:26:18.358Z,3510.00
2022-10-07T09:27:18.350Z,3757.50
2022-10-07T09:28:18.420Z,3611.25
2022-10-07T09:29:18.325Z,3515.62
2022-10-07T09:30:18.346Z,3476.25
2022-10-07T09:31:18.329Z,3549.38
2022-10-07T09:32:18.335Z,3656.25
2022-10-07T09:33:18.344Z,3622.50
2022-10-07T09:34:18.277Z,3588.75
2022-10-07T09:35:18.279Z,3571.88
2022-10-07T09:36:18.267Z,3498.75
2022-10-07T09:37:18.244Z,3459.38
2022-10-07T09:38:18.237Z,3256.88
2022-10-07T09:39:18.226Z,3161.25
2022-10-07T09:40:18.226Z,3425.62
2022-10-07T09:41:18.207Z,3712.50
2022-10-07T09:42:18.199Z,3684.38
2022-10-07T09:43:18.189Z,3605.62
2022-10-07T09:44:18.181Z,3926.25
2022-10-07T09:45:18.177Z,3931.88
2022-10-07T09:46:18.282Z,3661.88
2022-10-07T09:47:18.148Z,3656.25
2022-10-07T09:48:18.143Z,3588.75
2022-10-07T09:49:21.052Z,3616.88
2022-10-07T09:50:19.235Z,3555.00
2022-10-07T09:51:18.120Z,3504.38
2022-10-07T09:52:18.104Z,3560.62
2022-10-07T09:53:18.095Z,3600.00
2022-10-07T09:54:18.099Z,3526.88
2022-10-07T09:55:18.083Z,3459.38
2022-10-07T09:56:18.065Z,3414.38
2022-10-07T09:57:18.968Z,3470.62
2022-10-07T09:58:18.047Z,3504.38
2022-10-07T09:59:18.038Z,3504.38
2022-10-07T10:00:18.043Z,3515.62
2022-10-07T10:01:18.019Z,3414.38
2022-10-07T10:02:18.112Z,3487.50
2022-10-07T10:03:18.087Z,3493.12
2022-10-07T10:04:17.994Z,3335.62
2022-10-07T10:05:17.995Z,3560.62
2022-10-07T10:06:17.975Z,3841.88
2022-10-07T10:07:17.975Z,3920.62
2022-10-07T10:08:17.954Z,3954.38
2022-10-07T10:09:20.233Z,3853.12
2022-10-07T10:10:17.948Z,3757.50
2022-10-07T10:11:17.928Z,3735.00
2022-10-07T10:12:17.920Z,3768.75
2022-10-07T10:13:17.907Z,3616.88
2022-10-07T10:14:17.899Z,3526.88
2022-10-07T10:15:17.901Z,3650.62
2022-10-07T10:16:17.929Z,3819.38
2022-10-07T10:17:17.871Z,3858.75
2022-10-07T10:18:17.890Z,3920.62
2022-10-07T10:19:17.862Z,3841.88
2022-10-07T10:20:17.855Z,3650.62
2022-10-07T10:21:17.836Z,3656.25
2022-10-07T10:22:17.830Z,3605.62
2022-10-07T10:23:17.822Z,3133.12
2022-10-07T10:24:17.811Z,1310.62
2022-10-07T10:25:17.815Z,264.38
2022-10-07T10:26:17.791Z,230.62
2022-10-07T10:27:17.779Z,219.38
2022-10-07T10:28:17.824Z,208.12
2022-10-07T10:29:17.759Z,202.50
2022-10-07T10:30:17.765Z,202.50
2022-10-07T10:31:17.780Z,196.88
2022-10-07T10:32:17.733Z,196.88
2022-10-07T10:33:17.742Z,191.25
2022-10-07T10:34:17.849Z,191.25
2022-10-07T10:35:17.718Z,185.62
2022-10-07T10:36:17.748Z,185.62
2022-10-07T10:37:17.693Z,185.62
2022-10-07T10:38:17.704Z,185.62
2022-10-07T10:39:17.708Z,180.00
2022-10-07T10:40:19.116Z,180.00
2022-10-07T10:41:17.641Z,180.00
2022-10-07T10:42:17.631Z,180.00
2022-10-07T10:43:17.630Z,174.38
2022-10-07T10:44:17.611Z,180.00
2022-10-07T10:45:17.609Z,174.38
2022-10-07T10:46:17.625Z,174.38
2022-10-07T10:47:17.579Z,174.38
2022-10-07T10:48:17.565Z,174.38
2022-10-07T10:49:17.558Z,174.38
2022-10-07T10:50:17.643Z,174.38
2022-10-07T10:51:17.535Z,168.75
2022-10-07T10:52:17.548Z,168.75
2022-10-07T10:53:17.514Z,168.75
2022-10-07T10:54:17.502Z,168.75
2022-10-07T10:55:17.508Z,168.75
2022-10-07T10:56:17.480Z,168.75
2022-10-07T10:57:17.470Z,168.75
2022-10-07T10:58:17.461Z,168.75
2022-10-07T10:59:17.451Z,168.75
2022-10-07T11:00:17.547Z,163.12
2022-10-07T11:01:17.427Z,163.12
2022-10-07T11:02:17.496Z,163.12
2022-10-07T11:03:17.518Z,163.12
2022-10-07T11:04:17.403Z,163.12
2022-10-07T11:05:17.418Z,163.12
2022-10-07T11:06:17.387Z,163.12
2022-10-07T11:07:17.422Z,163.12
2022-10-07T11:08:17.445Z,163.12
2022-10-07T11:09:17.396Z,163.12
2022-10-07T11:10:17.423Z,163.12
2022-10-07T11:11:17.319Z,157.50
2022-10-07T11:12:17.309Z,157.50
2022-10-07T11:13:17.305Z,157.50
2022-10-07T11:14:17.310Z,157.50
2022-10-07T11:15:17.275Z,157.50
2022-10-07T11:16:17.324Z,157.50
2022-10-07T11:17:17.258Z,151.88
2022-10-07T11:18:17.243Z,151.88
2022-10-07T11:19:17.242Z,151.88
2022-10-07T11:20:17.303Z,151.88
2022-10-07T11:21:17.211Z,151.88
2022-10-07T11:22:17.216Z,151.88
2022-10-07T11:23:17.189Z,151.88
2022-10-07T11:24:17.187Z,151.88
2022-10-07T11:25:17.269Z,151.88
2022-10-07T11:26:17.158Z,151.88
2022-10-07T11:27:17.153Z,151.88
2022-10-07T11:28:17.192Z,151.88
2022-10-07T11:29:17.136Z,151.88
2022-10-07T11:30:17.186Z,146.25
2022-10-07T11:31:17.206Z,146.25
2022-10-07T11:32:17.094Z,146.25
2022-10-07T11:33:17.088Z,146.25
2022-10-07T11:34:17.087Z,146.25
2022-10-07T11:35:17.065Z,146.25
2022-10-07T11:36:17.092Z,146.25
2022-10-07T11:37:17.049Z,146.25
2022-10-07T11:38:17.046Z,146.25
2022-10-07T11:39:17.035Z,146.25
2022-10-07T11:40:17.108Z,146.25
2022-10-07T11:41:17.002Z,146.25
2022-10-07T11:42:17.003Z,146.25
2022-10-07T11:43:16.979Z,140.62
2022-10-07T11:44:16.984Z,140.62
2022-10-07T11:45:16.982Z,140.62
2022-10-07T11:46:17.026Z,140.62
2022-10-07T11:47:16.937Z,140.62
2022-10-07T11:48:16.926Z,140.62
2022-10-07T11:49:16.931Z,135.00
2022-10-07T11:50:16.958Z,135.00
2022-10-07T11:51:16.905Z,140.62
2022-10-07T11:52:16.888Z,135.00
2022-10-07T11:53:16.879Z,135.00
2022-10-07T11:54:16.927Z,135.00
2022-10-07T11:55:16.869Z,135.00
2022-10-07T11:56:16.864Z,135.00
2022-10-07T11:57:16.876Z,135.00
2022-10-07T11:58:16.829Z,135.00
2022-10-07T11:59:16.834Z,135.00
2022-10-07T12:00:16.801Z,129.38
2022-10-07T12:01:16.789Z,129.38
2022-10-07T12:02:16.824Z,129.38
2022-10-07T12:03:16.826Z,129.38
2022-10-07T12:04:16.779Z,129.38
2022-10-07T12:05:16.759Z,129.38
2022-10-07T12:06:16.735Z,123.75
2022-10-07T12:07:16.721Z,123.75
2022-10-07T12:08:16.708Z,123.75
2022-10-07T12:09:16.712Z,123.75
2022-10-07T12:10:16.714Z,123.75
2022-10-07T12:11:16.688Z,123.75
2022-10-07T12:12:16.669Z,118.12
2022-10-07T12:13:16.659Z,118.12
2022-10-07T12:14:16.658Z,118.12
2022-10-07T12:15:16.635Z,118.12
2022-10-07T12:16:16.704Z,118.12
2022-10-07T12:17:16.614Z,118.12
2022-10-07T12:18:16.602Z,118.12
2022-10-07T12:19:17.945Z,118.12
2022-10-07T12:20:16.583Z,118.12
2022-10-07T12:21:16.570Z,118.12
2022-10-07T12:22:16.562Z,118.12
2022-10-07T12:23:16.555Z,118.12
2022-10-07T12:24:16.555Z,118.12
2022-10-07T12:25:16.533Z,118.12
2022-10-07T12:26:16.541Z,118.12
2022-10-07T12:27:16.510Z,118.12
2022-10-07T12:28:16.564Z,118.12
2022-10-07T12:29:16.503Z,118.12
2022-10-07T12:30:16.474Z,112.50
2022-10-07T12:31:16.567Z,112.50
2022-10-07T12:32:16.453Z,112.50
2022-10-07T12:33:16.441Z,112.50
2022-10-07T12:34:16.443Z,112.50
2022-10-07T12:35:16.421Z,112.50
2022-10-07T12:36:16.413Z,112.50
2022-10-07T12:37:16.400Z,106.88
2022-10-07T12:38:16.414Z,106.88
2022-10-07T12:39:16.391Z,106.88
2022-10-07T12:40:16.366Z,106.88
2022-10-07T12:41:16.361Z,106.88
2022-10-07T12:42:16.363Z,106.88